createdAt,value
2019-04-20T00:01:18.656Z,52.88
2019-04-20T00:03:49.029Z,52.88
2019-04-20T00:06:19.540Z,52.70
2019-04-20T00:08:58.120Z,53.15
2019-04-20T00:11:28.381Z,52.91
2019-04-20T00:14:03.123Z,53.60
2019-04-20T00:16:25.175Z,53.80
2019-04-20T00:18:59.161Z,53.13
2019-04-20T00:22:00.276Z,53.17
2019-04-20T00:24:35.401Z,53.54
2019-04-20T00:27:29.821Z,54.05
2019-04-20T00:29:49.593Z,54.38
2019-04-20T00:32:18.544Z,54.91
2019-04-20T00:34:40.716Z,54.21
2019-04-20T00:37:10.874Z,54.30
2019-04-20T00:39:41.013Z,55.13
2019-04-20T00:42:14.226Z,54.56
2019-04-20T00:44:45.770Z,54.51
2019-04-20T00:47:29.512Z,55.04
2019-04-20T00:49:58.047Z,54.74
2019-04-20T00:52:31.140Z,54.23
2019-04-20T00:54:49.733Z,54.60
2019-04-20T00:57:30.540Z,53.91
2019-04-20T01:00:12.537Z,53.21
2019-04-20T01:02:36.183Z,52.93
2019-04-20T01:05:11.022Z,53.30
2019-04-20T01:07:46.831Z,52.75
2019-04-20T01:10:15.096Z,53.02
2019-04-20T01:12:45.831Z,52.58
2019-04-20T01:15:25.583Z,52.24
2019-04-20T01:17:48.558Z,51.96
2019-04-20T01:20:18.561Z,52.37
2019-04-20T01:22:54.633Z,51.79
2019-04-20T01:25:28.343Z,51.34
2019-04-20T01:28:10.297Z,52.75
2019-04-20T01:30:31.993Z,53.27
2019-04-20T01:33:14.886Z,53.30
2019-04-20T01:35:45.004Z,53.51
2019-04-20T01:38:17.836Z,53.82
2019-04-20T01:40:31.668Z,53.92
2019-04-20T01:43:01.762Z,54.29
2019-04-20T01:45:36.288Z,54.58
2019-04-20T01:48:05.198Z,55.29
2019-04-20T01:50:38.285Z,54.59
2019-04-20T01:53:18.966Z,55.52
2019-04-20T01:55:53.355Z,55.44
2019-04-20T01:58:39.790Z,55.09
2019-04-20T02:01:19.142Z,55.74
2019-04-20T02:03:53.532Z,55.56
2019-04-20T02:06:25.100Z,55.32
2019-04-20T02:09:01.575Z,55.58
2019-04-20T02:11:33.951Z,55.69
2019-04-20T02:14:02.424Z,55.95
2019-04-20T02:16:37.272Z,56.68
2019-04-20T02:19:22.090Z,56.12
2019-04-20T02:21:46.732Z,57.44
2019-04-20T02:24:08.042Z,57.52
2019-04-20T02:26:36.803Z,57.41
2019-04-20T02:29:31.961Z,55.73
2019-04-20T02:32:17.602Z,55.18
2019-04-20T02:35:07.610Z,55.47
2019-04-20T02:38:18.305Z,56.56
2019-04-20T02:40:46.596Z,57.89
2019-04-20T02:43:15.119Z,56.89
2019-04-20T02:48:14.105Z,59.07
2019-04-20T02:50:50.201Z,57.31
2019-04-20T02:53:20.324Z,57.35
2019-04-20T02:55:55.556Z,57.71
2019-04-20T02:58:29.128Z,57.54
2019-04-20T03:00:44.672Z,57.30
2019-04-20T03:03:07.796Z,58.39
2019-04-20T03:05:38.219Z,57.72
2019-04-20T03:08:19.128Z,57.92
2019-04-20T03:11:05.859Z,58.34
2019-04-20T03:13:25.356Z,58.34
2019-04-20T03:15:56.471Z,57.64
2019-04-20T03:18:25.277Z,57.64
2019-04-20T03:21:04.485Z,57.69
2019-04-20T03:23:36.814Z,58.30
2019-04-20T03:26:11.019Z,58.59
2019-04-20T03:29:01.473Z,58.64
2019-04-20T03:32:04.376Z,58.82
2019-04-20T03:34:38.466Z,58.84
2019-04-20T03:36:57.181Z,59.27
2019-04-20T03:39:16.793Z,59.41
2019-04-20T03:41:35.218Z,60.13
2019-04-20T03:44:04.177Z,60.48
2019-04-20T03:46:37.560Z,59.65
2019-04-20T03:49:21.518Z,59.80
2019-04-20T03:51:54.601Z,60.79
2019-04-20T03:54:38.671Z,60.86
2019-04-20T03:57:27.660Z,60.94
2019-04-20T04:00:06.289Z,60.98
2019-04-20T04:03:12.487Z,61.23
2019-04-20T04:05:32.426Z,61.37
2019-04-20T04:08:00.962Z,61.29
2019-04-20T04:10:31.667Z,61.46
2019-04-20T04:13:16.660Z,61.44
2019-04-20T04:15:51.971Z,62.20
2019-04-20T04:18:28.109Z,62.00
2019-04-20T04:20:59.416Z,62.37
2019-04-20T04:23:40.877Z,62.23
2019-04-20T04:26:12.384Z,62.54
2019-04-20T04:28:46.332Z,62.38
2019-04-20T04:31:16.493Z,61.74
2019-04-20T04:34:02.559Z,61.36
2019-04-20T04:36:19.377Z,62.29
2019-04-20T04:41:26.713Z,62.78
2019-04-20T04:43:54.200Z,63.46
2019-04-20T04:46:10.238Z,62.73
2019-04-20T04:48:43.950Z,63.23
2019-04-20T04:51:19.743Z,63.29
2019-04-20T04:53:54.182Z,63.22
2019-04-20T04:56:19.749Z,63.21
2019-04-20T04:58:47.399Z,62.73
2019-04-20T05:01:22.351Z,63.52
2019-04-20T05:04:14.788Z,63.36
2019-04-20T05:06:33.245Z,63.37
2019-04-20T05:08:58.441Z,64.13
2019-04-20T05:11:25.892Z,62.63
2019-04-20T05:14:02.251Z,62.85
2019-04-20T05:16:43.452Z,62.45
2019-04-20T05:19:19.331Z,62.81
2019-04-20T05:22:01.265Z,63.74
2019-04-20T05:24:48.198Z,63.88
2019-04-20T05:27:40.481Z,64.09
2019-04-20T05:29:52.889Z,63.04
2019-04-20T05:32:32.777Z,63.02
2019-04-20T05:35:14.642Z,62.92
2019-04-20T05:37:48.763Z,63.49
2019-04-20T05:40:25.213Z,64.06
2019-04-20T05:42:59.475Z,63.32
2019-04-20T05:45:25.221Z,63.25
2019-04-20T05:47:59.507Z,63.63
2019-04-20T05:50:31.210Z,63.08
2019-04-20T05:53:10.061Z,62.64
2019-04-20T05:55:33.029Z,62.49
2019-04-20T05:58:08.845Z,62.60
2019-04-20T06:00:45.038Z,63.13
2019-04-20T06:03:10.799Z,62.82
2019-04-20T06:05:53.698Z,63.28
2019-04-20T06:08:26.435Z,62.22
2019-04-20T06:10:52.232Z,62.79
2019-04-20T06:13:37.935Z,62.65
2019-04-20T06:16:29.871Z,62.13
2019-04-20T06:19:15.168Z,61.18
2019-04-20T06:21:54.332Z,61.12
2019-04-20T06:24:38.011Z,61.75
2019-04-20T06:27:01.010Z,61.80
2019-04-20T06:29:22.157Z,61.81
2019-04-20T06:32:07.127Z,61.23
2019-04-20T06:34:41.599Z,61.52
2019-04-20T06:37:02.836Z,62.07
2019-04-20T06:39:41.267Z,61.70
2019-04-20T06:45:02.230Z,60.28
2019-04-20T06:47:21.151Z,60.39
2019-04-20T06:49:38.191Z,60.91
2019-04-20T06:55:15.723Z,59.63
2019-04-20T06:57:49.902Z,59.57
2019-04-20T07:00:37.917Z,59.54
2019-04-20T07:03:04.733Z,59.16
2019-04-20T07:08:00.653Z,58.09
2019-04-20T07:10:35.910Z,57.84
2019-04-20T07:12:55.342Z,57.45
2019-04-20T07:15:28.512Z,57.45
2019-04-20T07:18:13.818Z,57.30
2019-04-20T07:21:03.783Z,57.96
2019-04-20T07:23:31.257Z,57.62
2019-04-20T07:26:04.866Z,57.88
2019-04-20T07:28:35.358Z,57.55
2019-04-20T07:31:01.844Z,58.33
2019-04-20T07:33:34.907Z,57.76
2019-04-20T07:36:05.937Z,56.74
2019-04-20T07:38:40.551Z,56.11
2019-04-20T07:41:08.228Z,56.58
2019-04-20T07:43:54.037Z,56.51
2019-04-20T07:46:20.795Z,56.35
2019-04-20T07:48:48.201Z,55.99
2019-04-20T07:51:06.892Z,54.85
2019-04-20T07:53:43.089Z,55.25
2019-04-20T07:56:25.947Z,54.28
2019-04-20T07:58:41.211Z,54.58
2019-04-20T08:01:38.855Z,53.76
2019-04-20T08:04:17.125Z,54.34
2019-04-20T08:06:42.097Z,54.26
2019-04-20T08:09:19.605Z,54.81
2019-04-20T08:12:03.008Z,54.64
2019-04-20T08:14:31.891Z,54.51
2019-04-20T08:17:14.070Z,54.51
2019-04-20T08:19:28.664Z,54.23
2019-04-20T08:22:07.684Z,54.23
2019-04-20T08:24:32.793Z,52.73
2019-04-20T08:27:00.006Z,52.25
2019-04-20T08:29:45.196Z,53.29
2019-04-20T08:32:32.522Z,53.29
2019-04-20T08:35:14.333Z,53.49
2019-04-20T08:37:45.939Z,52.24
2019-04-20T08:40:13.237Z,52.18
2019-04-20T08:42:58.577Z,52.21
2019-04-20T08:45:18.008Z,53.18
2019-04-20T08:47:51.794Z,53.02
2019-04-20T08:53:08.909Z,52.91
2019-04-20T08:55:19.817Z,53.37
2019-04-20T08:57:35.561Z,53.16
2019-04-20T09:00:07.659Z,53.10
2019-04-20T09:02:43.374Z,53.11
2019-04-20T09:05:28.137Z,53.63
2019-04-20T09:07:55.363Z,53.38
2019-04-20T09:10:41.015Z,52.96
2019-04-20T09:13:02.209Z,53.13
2019-04-20T09:15:21.116Z,52.57
2019-04-20T09:18:01.928Z,52.09
2019-04-20T09:20:42.385Z,51.11
2019-04-20T09:23:23.931Z,51.43
2019-04-20T09:26:12.937Z,51.18
2019-04-20T09:28:37.347Z,50.88
2019-04-20T09:31:22.639Z,50.69
2019-04-20T09:34:03.932Z,50.04
2019-04-20T09:36:32.560Z,48.90
2019-04-20T09:39:08.643Z,49.38
2019-04-20T09:41:54.640Z,49.22
2019-04-20T09:44:06.992Z,49.88
2019-04-20T09:46:44.164Z,49.39
2019-04-20T09:49:20.077Z,49.25
2019-04-20T09:51:59.750Z,48.78
2019-04-20T09:54:34.309Z,48.82
2019-04-20T09:57:03.577Z,48.77
2019-04-20T09:59:33.493Z,47.29
2019-04-20T10:01:59.102Z,48.11
2019-04-20T10:04:19.630Z,47.56
2019-04-20T10:06:49.746Z,47.94
2019-04-20T10:09:26.891Z,47.31
2019-04-20T10:11:51.619Z,46.82
2019-04-20T10:14:22.625Z,46.87
2019-04-20T10:16:53.808Z,46.96
2019-04-20T10:19:30.165Z,45.61
2019-04-20T10:21:56.983Z,45.76
2019-04-20T10:24:28.437Z,43.95
2019-04-20T10:26:58.885Z,45.20
2019-04-20T10:29:28.941Z,44.77
2019-04-20T10:32:02.634Z,45.15
2019-04-20T10:34:30.720Z,45.00
2019-04-20T10:37:13.491Z,43.39
2019-04-20T10:39:44.670Z,43.74
2019-04-20T10:42:16.229Z,44.02
2019-04-20T10:44:48.052Z,42.73
2019-04-20T10:47:18.976Z,42.61
2019-04-20T10:49:49.324Z,43.14
2019-04-20T10:52:20.010Z,42.66
2019-04-20T10:54:50.401Z,41.41
2019-04-20T10:57:21.615Z,41.16
2019-04-20T10:59:52.048Z,41.43
2019-04-20T11:02:23.547Z,41.42
2019-04-20T11:04:54.799Z,41.03
2019-04-20T11:07:26.369Z,41.64
2019-04-20T11:10:10.384Z,41.04
2019-04-20T11:12:28.507Z,40.09
2019-04-20T11:14:58.724Z,39.82
2019-04-20T11:17:30.576Z,39.75
2019-04-20T11:20:01.372Z,39.74
2019-04-20T11:22:32.564Z,39.47
2019-04-20T11:25:04.179Z,40.67
2019-04-20T11:27:34.380Z,40.59
2019-04-20T11:30:04.954Z,39.93
2019-04-20T11:32:35.995Z,39.54
2019-04-20T11:35:09.112Z,40.65
2019-04-20T11:37:39.146Z,40.36
2019-04-20T11:40:10.793Z,39.91
2019-04-20T11:42:41.620Z,40.41
2019-04-20T11:45:12.944Z,39.63
2019-04-20T11:47:43.412Z,40.13
2019-04-20T11:50:13.785Z,40.59
2019-04-20T11:52:48.111Z,39.91
2019-04-20T11:55:16.114Z,40.22
2019-04-20T11:57:47.203Z,39.59
2019-04-20T12:00:23.974Z,39.32
2019-04-20T12:03:21.828Z,39.07
2019-04-20T12:05:48.196Z,40.20
2019-04-20T12:08:16.569Z,39.46
2019-04-20T12:10:51.353Z,40.14
2019-04-20T12:13:20.455Z,40.58
2019-04-20T12:15:51.872Z,40.58
2019-04-20T12:18:23.365Z,41.69
2019-04-20T12:20:54.844Z,40.07
2019-04-20T12:23:26.413Z,39.94
2019-04-20T12:25:56.902Z,41.12
2019-04-20T12:28:27.836Z,40.81
2019-04-20T12:31:05.283Z,39.86
2019-04-20T12:33:32.619Z,40.85
2019-04-20T12:36:06.010Z,39.60
2019-04-20T12:38:37.386Z,38.89
2019-04-20T12:41:10.996Z,38.74
2019-04-20T12:43:41.517Z,38.54
2019-04-20T12:46:16.250Z,39.10
2019-04-20T12:48:45.266Z,39.38
2019-04-20T12:51:17.416Z,38.25
2019-04-20T12:53:48.745Z,38.50
2019-04-20T12:56:20.316Z,38.05
2019-04-20T12:58:51.640Z,38.46
2019-04-20T13:01:22.880Z,38.55
2019-04-20T13:03:53.704Z,39.13
2019-04-20T13:06:23.951Z,38.92
2019-04-20T13:08:58.947Z,39.26
2019-04-20T13:11:50.765Z,38.87
2019-04-20T13:14:48.210Z,38.77
2019-04-20T13:17:19.918Z,38.52
2019-04-20T13:19:51.274Z,37.87
2019-04-20T13:22:21.424Z,39.08
2019-04-20T13:24:52.807Z,38.44
2019-04-20T13:27:23.027Z,37.64
2019-04-20T13:29:54.656Z,37.18
2019-04-20T13:32:25.712Z,37.67
2019-04-20T13:34:56.283Z,37.08
2019-04-20T13:37:26.463Z,36.82
2019-04-20T13:39:56.721Z,37.03
2019-04-20T13:42:29.784Z,37.29
2019-04-20T13:44:59.097Z,37.41
2019-04-20T13:47:30.480Z,37.53
2019-04-20T13:50:01.147Z,37.98
2019-04-20T13:52:31.405Z,37.63
2019-04-20T13:55:02.402Z,37.56
2019-04-20T13:57:40.001Z,37.04
2019-04-20T14:00:35.025Z,36.51
2019-04-20T14:03:08.898Z,35.97
2019-04-20T14:05:40.494Z,36.09
2019-04-20T14:08:13.487Z,36.47
2019-04-20T14:10:45.109Z,37.02
2019-04-20T14:13:20.974Z,36.59
2019-04-20T14:15:51.277Z,36.82
2019-04-20T14:18:22.628Z,37.27
2019-04-20T14:20:54.113Z,37.45
2019-04-20T14:23:25.222Z,37.21
2019-04-20T14:25:56.592Z,36.94
2019-04-20T14:28:27.091Z,36.32
2019-04-20T14:30:58.189Z,36.83
2019-04-20T14:33:28.644Z,36.37
2019-04-20T14:35:59.088Z,36.72
2019-04-20T14:38:30.591Z,36.71
2019-04-20T14:41:02.170Z,36.42
2019-04-20T14:43:33.556Z,36.45
2019-04-20T14:46:05.043Z,36.47
2019-04-20T14:48:36.535Z,36.22
2019-04-20T14:51:07.703Z,36.49
2019-04-20T14:53:38.061Z,35.14
2019-04-20T14:56:09.461Z,35.08
2019-04-20T14:58:49.545Z,35.71
2019-04-20T15:01:38.726Z,35.58
2019-04-20T15:04:14.575Z,36.52
2019-04-20T15:06:40.567Z,36.40
2019-04-20T15:09:10.905Z,36.01
2019-04-20T15:11:42.989Z,36.41
2019-04-20T15:14:12.750Z,36.30
2019-04-20T15:16:42.812Z,36.57
2019-04-20T15:19:31.662Z,36.36
2019-04-20T15:22:03.538Z,36.21
2019-04-20T15:24:33.647Z,36.89
2019-04-20T15:27:04.761Z,36.19
2019-04-20T15:29:36.072Z,36.12
2019-04-20T15:32:06.212Z,37.15
2019-04-20T15:34:37.177Z,36.55
2019-04-20T15:37:07.905Z,37.54
2019-04-20T15:39:38.979Z,36.98
2019-04-20T15:42:09.640Z,36.97
2019-04-20T15:44:39.823Z,37.01
2019-04-20T15:47:11.174Z,36.74
2019-04-20T15:49:42.037Z,36.81
2019-04-20T15:52:19.253Z,36.33
2019-04-20T15:54:45.429Z,36.74
2019-04-20T15:57:21.306Z,36.76
2019-04-20T15:59:48.618Z,36.83
2019-04-20T16:02:29.464Z,37.02
2019-04-20T16:05:16.479Z,37.18
2019-04-20T16:07:52.434Z,37.09
2019-04-20T16:10:19.300Z,36.57
2019-04-20T16:13:02.023Z,37.00
2019-04-20T16:15:22.060Z,37.24
2019-04-20T16:17:53.255Z,37.62
2019-04-20T16:20:25.502Z,37.51
2019-04-20T16:22:56.495Z,37.81
2019-04-20T16:25:35.490Z,37.94
2019-04-20T16:28:05.809Z,38.03
2019-04-20T16:30:36.021Z,38.56
2019-04-20T16:33:06.331Z,38.87
2019-04-20T16:35:36.495Z,39.08
2019-04-20T16:38:06.851Z,39.44
2019-04-20T16:40:37.778Z,39.50
2019-04-20T16:43:18.032Z,39.77
2019-04-20T16:45:39.705Z,39.91
2019-04-20T16:48:10.492Z,40.65
2019-04-20T16:50:40.823Z,40.87
2019-04-20T16:53:10.973Z,40.94
2019-04-20T16:55:41.163Z,41.11
2019-04-20T16:58:11.293Z,41.40
2019-04-20T17:00:43.188Z,42.25
2019-04-20T17:03:13.323Z,42.59
2019-04-20T17:05:43.436Z,42.69
2019-04-20T17:08:13.490Z,43.12
2019-04-20T17:10:44.531Z,43.62
2019-04-20T17:13:16.715Z,43.76
2019-04-20T17:15:47.865Z,43.90
2019-04-20T17:18:19.243Z,44.32
2019-04-20T17:20:50.594Z,44.56
2019-04-20T17:23:21.326Z,44.43
2019-04-20T17:25:52.307Z,44.64
2019-04-20T17:28:55.014Z,44.78
2019-04-20T17:31:45.146Z,44.47
2019-04-20T17:34:36.550Z,44.64
2019-04-20T17:36:50.509Z,44.59
2019-04-20T17:39:33.620Z,44.83
2019-04-20T17:42:07.406Z,44.65
2019-04-20T17:44:37.225Z,44.90
2019-04-20T17:47:13.621Z,45.21
2019-04-20T17:49:41.377Z,45.31
2019-04-20T17:52:25.168Z,45.40
2019-04-20T17:54:39.667Z,45.60
2019-04-20T17:57:11.077Z,46.01
2019-04-20T17:59:52.151Z,45.58
2019-04-20T18:02:49.175Z,45.41
2019-04-20T18:05:39.290Z,45.78
2019-04-20T18:08:19.320Z,45.78
2019-04-20T18:10:37.922Z,46.11
2019-04-20T18:12:56.992Z,45.75
2019-04-20T18:15:42.451Z,45.99
2019-04-20T18:18:32.196Z,45.72
2019-04-20T18:20:52.919Z,45.83
2019-04-20T18:23:28.128Z,45.93
2019-04-20T18:26:17.120Z,46.02
2019-04-20T18:28:54.395Z,46.21
2019-04-20T18:31:17.606Z,46.03
2019-04-20T18:33:48.579Z,46.63
2019-04-20T18:36:28.435Z,45.94
2019-04-20T18:38:57.439Z,46.20
2019-04-20T18:41:30.820Z,46.46
2019-04-20T18:43:58.608Z,46.21
2019-04-20T18:46:52.683Z,46.41
2019-04-20T18:49:14.751Z,46.25
2019-04-20T18:51:29.967Z,46.00
2019-04-20T18:54:05.588Z,46.36
2019-04-20T18:56:36.584Z,46.40
2019-04-20T18:59:05.098Z,46.23
2019-04-20T19:01:39.574Z,46.51
2019-04-20T19:04:07.854Z,46.41
2019-04-20T19:06:38.202Z,46.59
2019-04-20T19:09:09.240Z,46.63
2019-04-20T19:11:43.830Z,46.71
2019-04-20T19:14:49.363Z,46.72
2019-04-20T19:17:57.013Z,47.65
2019-04-20T19:20:41.055Z,47.08
2019-04-20T19:23:11.493Z,47.36
2019-04-20T19:25:43.791Z,47.59
2019-04-20T19:28:14.463Z,47.45
2019-04-20T19:31:00.238Z,47.70
2019-04-20T19:33:31.195Z,47.63
2019-04-20T19:35:56.087Z,48.10
2019-04-20T19:38:24.548Z,48.07
2019-04-20T19:41:00.140Z,48.07
2019-04-20T19:43:32.991Z,47.80
2019-04-20T19:46:35.391Z,48.49
2019-04-20T19:48:39.407Z,47.95
2019-04-20T19:51:26.940Z,48.04
2019-04-20T19:53:54.480Z,48.21
2019-04-20T19:56:16.961Z,48.67
2019-04-20T19:58:52.947Z,49.21
2019-04-20T20:01:07.303Z,48.58
2019-04-20T20:03:37.690Z,49.37
2019-04-20T20:06:11.045Z,49.19
2019-04-20T20:08:40.481Z,49.46
2019-04-20T20:11:21.720Z,48.75
2019-04-20T20:13:49.560Z,48.88
2019-04-20T20:16:26.352Z,48.80
2019-04-20T20:18:59.908Z,48.33
2019-04-20T20:21:27.062Z,49.04
2019-04-20T20:23:50.378Z,49.08
2019-04-20T20:26:28.992Z,49.12
2019-04-20T20:29:09.670Z,49.42
2019-04-20T20:31:48.582Z,48.62
2019-04-20T20:34:15.744Z,48.68
2019-04-20T20:36:43.579Z,48.75
2019-04-20T20:39:15.941Z,48.56
2019-04-20T20:41:53.159Z,49.36
2019-04-20T20:44:25.986Z,49.13
2019-04-20T20:46:57.379Z,48.98
2019-04-20T20:49:35.881Z,49.44
2019-04-20T20:52:08.154Z,49.34
2019-04-20T20:54:34.667Z,49.75
2019-04-20T20:56:59.687Z,49.76
2019-04-20T20:59:34.787Z,50.29
2019-04-20T21:02:04.842Z,49.62
2019-04-20T21:04:26.287Z,49.98
2019-04-20T21:06:58.318Z,50.34
2019-04-20T21:09:29.324Z,50.08
2019-04-20T21:12:04.836Z,50.13
2019-04-20T21:14:34.824Z,50.41
2019-04-20T21:17:12.297Z,50.89
2019-04-20T21:19:56.244Z,50.98
2019-04-20T21:22:13.383Z,51.11
2019-04-20T21:24:41.965Z,51.04
2019-04-20T21:27:16.510Z,50.87
2019-04-20T21:29:50.792Z,51.55
2019-04-20T21:32:18.045Z,51.83
2019-04-20T21:34:51.868Z,52.27
2019-04-20T21:37:23.040Z,52.66
2019-04-20T21:39:56.138Z,52.29
2019-04-20T21:42:28.231Z,52.33
2019-04-20T21:45:05.719Z,52.17
2019-04-20T21:47:33.826Z,52.25
2019-04-20T21:50:17.024Z,52.48
2019-04-20T21:52:38.749Z,52.43
2019-04-20T21:55:04.105Z,53.02
2019-04-20T21:57:40.714Z,53.08
2019-04-20T22:00:21.569Z,52.93
2019-04-20T22:02:48.039Z,52.81
2019-04-20T22:05:13.563Z,53.60
2019-04-20T22:07:44.238Z,53.65
2019-04-20T22:10:20.192Z,53.18
2019-04-20T22:12:52.671Z,53.53
2019-04-20T22:15:26.040Z,53.81
2019-04-20T22:17:50.677Z,53.82
2019-04-20T22:20:32.541Z,54.37
2019-04-20T22:23:09.766Z,53.99
2019-04-20T22:25:42.559Z,54.10
2019-04-20T22:27:58.993Z,54.02
2019-04-20T22:30:28.219Z,54.22
2019-04-20T22:33:04.013Z,54.51
2019-04-20T22:35:36.031Z,54.87
2019-04-20T22:38:17.528Z,54.72
2019-04-20T22:40:47.199Z,54.83
2019-04-20T22:43:24.010Z,55.16
2019-04-20T22:45:53.436Z,55.32
2019-04-20T22:48:21.055Z,55.30
2019-04-20T22:51:11.190Z,55.29
2019-04-20T22:53:36.442Z,56.18
2019-04-20T22:56:15.040Z,56.07
2019-04-20T22:58:40.540Z,57.57
2019-04-20T23:01:04.272Z,56.45
2019-04-20T23:03:30.657Z,56.98
2019-04-20T23:06:00.765Z,57.63
2019-04-20T23:08:30.826Z,57.02
2019-04-20T23:11:04.650Z,57.66
2019-04-20T23:13:39.180Z,56.94
2019-04-20T23:16:07.460Z,56.81
2019-04-20T23:18:38.234Z,57.65
2019-04-20T23:21:12.292Z,58.59
2019-04-20T23:23:41.503Z,57.82
2019-04-20T23:26:12.663Z,57.62
2019-04-20T23:28:48.273Z,59.23
2019-04-20T23:31:19.718Z,58.48
2019-04-20T23:33:47.771Z,58.25
2019-04-20T23:36:20.212Z,58.64
2019-04-20T23:38:54.170Z,58.64
2019-04-20T23:41:21.897Z,58.40
2019-04-20T23:44:12.721Z,58.75
2019-04-20T23:47:08.625Z,58.70
2019-04-20T23:49:54.149Z,58.70
2019-04-20T23:52:33.786Z,58.73
2019-04-20T23:54:50.511Z,58.92
2019-04-20T23:57:13.561Z,58.92
2019-04-20T23:59:46.279Z,59.44
